Flight Track Log - Related Links

Times and Time Zones

All times are in EDT time to prevent confusion due to time zone crossing. See the FEX100 flight status page for this flight to view local times or setup timezone preferences in your user account.

Time Position Orientation Groundspeed Altitude Reporting Facility
EDT Latitude Longitude Course Direction KTS MPH feet Rate Location/Type
Fri 07:28:03 PM 46.6500 -80.7000 90° East 150 173 5,200  Level Toronto Center
Fri 07:29:03 PM 46.6000 -80.6667 155° Southeast 170 196 6,700 1,650 Climbing Toronto Center
Fri 07:30:03 PM 46.5500 -80.6500 167° South 170 196 8,500 1,650 Climbing Toronto Center
Fri 07:31:03 PM 46.5167 -80.6167 145° Southeast 170 196 10,000 1,500 Climbing Toronto Center
Fri 07:32:03 PM 46.4667 -80.6000 167° South 170 196 11,500 1,400 Climbing Toronto Center
Fri 07:33:03 PM 46.4167 -80.5667 155° Southeast 170 196 12,800 1,300 Climbing Toronto Center
Fri 07:34:03 PM 46.3833 -80.5667 180° South 160 184 14,100 1,150 Climbing Toronto Center
Fri 07:35:03 PM 46.3333 -80.5500 167° South 160 184 15,100 1,100 Climbing Toronto Center
Fri 07:36:03 PM 46.3000 -80.5167 145° Southeast 170 196 16,300 900 Climbing Toronto Center
Fri 07:37:03 PM 46.2333 -80.5000 170° South 180 207 16,900 350 Climbing Toronto Center
Fri 07:38:03 PM 46.1833 -80.4667 155° Southeast 200 230 17,000 50 Climbing Toronto Center
Fri 07:39:03 PM 46.1167 -80.4500 170° South 230 265 17,000  Level Toronto Center
Fri 07:40:03 PM 46.0667 -80.4167 155° Southeast 240 276 17,000  Level Toronto Center
Fri 07:41:03 PM 46.0000 -80.3833 161° South 240 276 17,000  Level Toronto Center
Fri 07:42:03 PM 45.9333 -80.3500 161° South 240 276 17,000  Level Toronto Center
Fri 07:43:03 PM 45.8833 -80.3333 167° South 240 276 17,000  Level Toronto Center
Fri 07:44:03 PM 45.8167 -80.2833 152° Southeast 240 276 17,000  Level Toronto Center
Fri 07:45:03 PM 45.7500 -80.2500 161° South 240 276 17,000  Level Toronto Center
Fri 07:46:03 PM 45.6833 -80.2000 152° Southeast 240 276 17,000  Level Toronto Center
Fri 07:47:03 PM 45.6333 -80.1833 167° South 240 276 17,000  Level Toronto Center
Fri 07:48:03 PM 45.5667 -80.1333 152° Southeast 240 276 17,000  Level Toronto Center
Fri 07:49:03 PM 45.5000 -80.1000 161° South 240 276 17,000  Level Toronto Center
Fri 07:50:03 PM 45.4333 -80.0833 170° South 250 288 17,000  Level Toronto Center
Fri 07:51:03 PM 45.3667 -80.0333 152° Southeast 240 276 17,000  Level Toronto Center
Fri 07:52:03 PM 45.3167 -80.0167 167° South 240 276 17,000  Level Toronto Center
Fri 07:53:03 PM 45.2500 -79.9667 152° Southeast 240 276 17,000  Level Toronto Center
Fri 07:54:03 PM 45.1833 -79.9333 161° South 240 276 17,000 -50 Level Toronto Center
Fri 07:55:03 PM 45.1167 -79.9167 170° South 240 276 16,900  Descending Toronto Center
Fri 07:56:03 PM 45.0667 -79.8667 145° Southeast 240 276 17,000 -400 Climbing Toronto Center
Fri 07:57:03 PM 44.9833 -79.8500 172° South 250 288 16,100 -1,350 Descending Toronto Center
Fri 07:58:03 PM 44.9167 -79.8167 161° South 280 322 14,300 -1,750 Descending Toronto Center
Fri 07:59:03 PM 44.8333 -79.7667 157° South 300 345 12,600 -1,550 Descending Toronto Center
Fri 08:00:03 PM 44.7667 -79.7333 160° South 290 334 11,200 -1,550 Descending Toronto Center
Fri 08:01:03 PM 44.6833 -79.7000 164° South 290 334 9,500 -1,550 Descending Toronto Center
Fri 08:02:03 PM 44.6167 -79.6500 152° Southeast 290 334 8,100 -1,400 Descending Toronto Center
Fri 08:03:03 PM 44.5500 -79.6167 160° South 280 322 6,700 -1,450 Descending Toronto Center
Fri 08:04:03 PM 44.4667 -79.5833 164° South 280 322 5,200 -1,100 Descending Toronto Center
Fri 08:05:03 PM 44.4000 -79.5333 152° Southeast 270 311 4,500 -550 Descending Toronto Center
Fri 08:06:03 PM 44.3333 -79.5167 170° South 260 299 4,100 -300 Descending Toronto Center
Fri 08:07:03 PM 44.2667 -79.5000 170° South 250 288 3,900 -100 Descending Toronto Center
Fri 08:08:03 PM 44.2000 -79.5000 180° South 240 276 3,900  Level Toronto Center
Fri 08:09:03 PM 44.1333 -79.5000 180° South 220 253 3,900 -400 Level Toronto Center
Fri 08:10:03 PM 44.0833 -79.5000 180° South 200 230 3,100 -450 Descending Toronto Center
Fri 08:11:03 PM 44.0333 -79.5167 193° South 180 207 3,000 -200 Descending Toronto Center
Fri 08:12:03 PM 43.9833 -79.5000 167° South 170 196 2,700 -400 Descending Toronto Center
Fri 08:13:03 PM 43.9500 -79.4500 133° Southeast 160 184 2,200 -350 Descending Toronto Center
Fri 08:14:03 PM 43.9167 -79.4167 144° Southeast 130 150 2,000 -250 Descending Toronto Center
Fri 08:15:03 PM 43.9000 -79.4000 144° Southeast 120 138 1,700 -450 Descending Toronto Center
Fri 08:16:03 PM 43.8667 -79.3833 160° South 120 138 1,100 -600 Descending Toronto Center

Login

Don't have an account? Register now (free) for customized features, flight alerts, and more!